Time;durP1;ratioP1;P1;durP2;ratioP2;P2;SDS_P1;SDS_P2;PMS_P1;PMS_P2;Temp;Humidity;BMP_temperature;BMP_pressure;BME280_temperature;BME280_humidity;BME280_pressure;Samples;Min_cycle;Max_cycle;Signal;HPM_P1;HPM_P2
2022/04/23 00:00:56;;;;;;;26.10;13.55;;;;;;;;;;5041801;28;20044;-71
2022/04/23 00:03:21;;;;;;;24.55;13.23;;;;;;;;;;5044671;28;20542;-71
2022/04/23 00:05:46;;;;;;;26.90;13.35;;;;;;;;;;5042684;28;20045;-71
2022/04/23 00:08:12;;;;;;;28.15;13.70;;;;;;;;;;5040068;28;20426;-71
2022/04/23 00:10:37;;;;;;;25.27;12.85;;;;;;;;;;5035606;28;20040;-71
2022/04/23 00:13:04;;;;;;;22.77;13.15;;;;;;;;;;5038592;28;20064;-71
2022/04/23 00:15:36;;;;;;;24.25;13.75;;;;;;;;;;5038401;28;20538;-71
2022/04/23 00:18:02;;;;;;;23.10;13.03;;;;;;;;;;5032382;28;20636;-71
2022/04/23 00:20:29;;;;;;;22.27;13.15;;;;;;;;;;5038071;28;20064;-71
2022/04/23 00:22:55;;;;;;;26.13;13.38;;;;;;;;;;5042215;28;20024;-71
2022/04/23 00:25:20;;;;;;;25.38;13.35;;;;;;;;;;5032116;28;20047;-71
2022/04/23 00:27:46;;;;;;;27.50;14.00;;;;;;;;;;5040349;28;20406;-71
2022/04/23 00:30:11;;;;;;;25.73;13.50;;;;;;;;;;5037547;28;20473;-71
2022/04/23 00:32:37;;;;;;;25.83;14.68;;;;;;;;;;5032692;28;20030;-71
2022/04/23 00:35:02;;;;;;;24.77;13.45;;;;;;;;;;5039701;28;20033;-71
2022/04/23 00:37:28;;;;;;;23.60;13.10;;;;;;;;;;5029547;28;20051;-71
2022/04/23 00:39:53;;;;;;;23.20;13.27;;;;;;;;;;5032503;28;20040;-71
2022/04/23 00:42:18;;;;;;;25.10;13.40;;;;;;;;;;5038718;28;20036;-71
2022/04/23 00:44:44;;;;;;;25.63;13.65;;;;;;;;;;5027814;28;20048;-71
2022/04/23 00:47:09;;;;;;;26.42;13.70;;;;;;;;;;5027155;28;20112;-71
2022/04/23 00:49:34;;;;;;;24.00;13.32;;;;;;;;;;5031721;28;20520;-71
2022/04/23 00:52:00;;;;;;;24.08;13.60;;;;;;;;;;5040176;28;20029;-71
2022/04/23 00:54:26;;;;;;;28.70;14.13;;;;;;;;;;5032915;28;20044;-71
2022/04/23 00:56:53;;;;;;;22.25;13.20;;;;;;;;;;5039952;28;20477;-71
2022/04/23 00:59:18;;;;;;;23.85;13.80;;;;;;;;;;5048261;28;20013;-71
2022/04/23 01:01:44;;;;;;;27.08;14.80;;;;;;;;;;5045833;28;20025;-71
2022/04/23 01:04:11;;;;;;;24.23;13.45;;;;;;;;;;5034631;28;20053;-71
2022/04/23 01:06:37;;;;;;;24.48;13.82;;;;;;;;;;5040127;28;20048;-71
2022/04/23 01:09:06;;;;;;;27.35;13.65;;;;;;;;;;5041051;28;20407;-71
2022/04/23 01:11:32;;;;;;;24.08;13.55;;;;;;;;;;5037419;28;20676;-71
2022/04/23 01:13:58;;;;;;;21.95;13.02;;;;;;;;;;5038054;28;20042;-71
2022/04/23 01:16:23;;;;;;;26.25;13.60;;;;;;;;;;5043544;28;20025;-71
2022/04/23 01:18:49;;;;;;;24.60;14.10;;;;;;;;;;5043681;28;20090;-71
2022/04/23 01:21:14;;;;;;;26.65;13.75;;;;;;;;;;5044766;28;20097;-71
2022/04/23 01:23:42;;;;;;;26.23;13.93;;;;;;;;;;5048862;28;20694;-71
2022/04/23 01:26:08;;;;;;;26.27;14.20;;;;;;;;;;5040856;28;20112;-72
2022/04/23 01:28:37;;;;;;;23.52;14.10;;;;;;;;;;5044572;28;20619;-71
2022/04/23 01:31:04;;;;;;;25.17;13.88;;;;;;;;;;5033533;28;20561;-71
2022/04/23 01:33:32;;;;;;;22.98;12.23;;;;;;;;;;5041428;28;20036;-71
2022/04/23 01:35:57;;;;;;;25.55;13.38;;;;;;;;;;5044044;28;20080;-71
2022/04/23 01:38:23;;;;;;;25.30;14.23;;;;;;;;;;5040713;28;20502;-71
2022/04/23 01:40:48;;;;;;;23.50;13.02;;;;;;;;;;5049893;28;20099;-71
2022/04/23 01:43:14;;;;;;;23.65;13.45;;;;;;;;;;5049179;28;20568;-71
2022/04/23 01:45:40;;;;;;;28.92;14.30;;;;;;;;;;5042171;28;20167;-71
2022/04/23 01:48:06;;;;;;;23.42;13.40;;;;;;;;;;5045600;28;20585;-71
2022/04/23 01:50:31;;;;;;;24.30;13.20;;;;;;;;;;5039060;28;20501;-71
2022/04/23 01:52:57;;;;;;;21.80;13.43;;;;;;;;;;5043383;28;20029;-71
2022/04/23 01:55:23;;;;;;;23.38;13.52;;;;;;;;;;5041553;28;20034;-71
2022/04/23 01:57:49;;;;;;;23.65;13.35;;;;;;;;;;5036521;28;20044;-71
2022/04/23 02:00:14;;;;;;;29.50;14.45;;;;;;;;;;5035047;28;20033;-71
2022/04/23 02:02:44;;;;;;;22.17;12.82;;;;;;;;;;5029456;28;20094;-71
2022/04/23 02:05:10;;;;;;;23.38;13.45;;;;;;;;;;5038560;28;20031;-71
2022/04/23 02:07:40;;;;;;;20.85;13.35;;;;;;;;;;5035648;28;20025;-71
2022/04/23 02:10:08;;;;;;;23.13;14.00;;;;;;;;;;5036708;28;20045;-71
2022/04/23 02:12:33;;;;;;;25.25;13.80;;;;;;;;;;5039170;28;20029;-71
2022/04/23 02:15:00;;;;;;;22.52;12.77;;;;;;;;;;5042284;28;20033;-71
2022/04/23 02:17:35;;;;;;;27.35;14.38;;;;;;;;;;5043854;28;20652;-71
2022/04/23 02:20:04;;;;;;;23.25;13.68;;;;;;;;;;5037429;28;20024;-71
2022/04/23 02:22:30;;;;;;;23.90;13.20;;;;;;;;;;5034323;28;20141;-71
2022/04/23 02:24:56;;;;;;;21.92;11.90;;;;;;;;;;5033060;28;20670;-71
2022/04/23 02:27:23;;;;;;;20.60;12.05;;;;;;;;;;5028647;28;20530;-71
2022/04/23 02:29:48;;;;;;;24.48;13.48;;;;;;;;;;5046322;28;20041;-71
2022/04/23 02:32:14;;;;;;;25.50;13.13;;;;;;;;;;5037811;28;20422;-71
2022/04/23 02:34:39;;;;;;;22.65;13.23;;;;;;;;;;5041262;28;20646;-71
2022/04/23 02:37:07;;;;;;;24.05;13.02;;;;;;;;;;5037711;28;20148;-71
2022/04/23 02:39:33;;;;;;;23.25;13.45;;;;;;;;;;5041324;28;20573;-71
2022/04/23 02:41:58;;;;;;;25.77;13.93;;;;;;;;;;5043030;28;20056;-71
2022/04/23 02:44:25;;;;;;;26.25;14.18;;;;;;;;;;5040029;28;20496;-71
2022/04/23 02:46:52;;;;;;;26.02;13.57;;;;;;;;;;5049426;28;20072;-70
2022/04/23 02:49:17;;;;;;;21.80;12.88;;;;;;;;;;5041417;28;20064;-71
2022/04/23 02:51:43;;;;;;;24.13;13.70;;;;;;;;;;5042274;28;20126;-71
2022/04/23 02:54:08;;;;;;;24.92;13.70;;;;;;;;;;5045763;28;20172;-71
2022/04/23 02:56:34;;;;;;;25.23;13.73;;;;;;;;;;5041074;28;20110;-71
2022/04/23 02:59:02;;;;;;;26.83;13.85;;;;;;;;;;5044755;28;20025;-71
2022/04/23 03:01:29;;;;;;;21.80;11.35;;;;;;;;;;5039068;28;20048;-71
2022/04/23 03:03:56;;;;;;;25.40;13.30;;;;;;;;;;5036671;28;20045;-71
2022/04/23 03:06:22;;;;;;;23.98;13.25;;;;;;;;;;5037295;28;20056;-71
2022/04/23 03:08:48;;;;;;;24.48;13.57;;;;;;;;;;5038063;28;20127;-71
2022/04/23 03:11:14;;;;;;;23.45;13.75;;;;;;;;;;5043309;28;20033;-71
2022/04/23 03:13:39;;;;;;;23.60;13.93;;;;;;;;;;5040889;28;20623;-71
2022/04/23 03:16:04;;;;;;;30.55;13.25;;;;;;;;;;5039224;28;20028;-71
2022/04/23 03:18:30;;;;;;;21.98;12.88;;;;;;;;;;5046802;28;20041;-71
2022/04/23 03:20:55;;;;;;;22.58;13.27;;;;;;;;;;5032592;28;20037;-71
2022/04/23 03:23:21;;;;;;;28.02;13.48;;;;;;;;;;5044498;28;20711;-71
2022/04/23 03:25:47;;;;;;;26.77;13.45;;;;;;;;;;5041994;28;20558;-71
2022/04/23 03:28:14;;;;;;;21.95;12.50;;;;;;;;;;5038033;28;20029;-71
2022/04/23 03:30:40;;;;;;;28.38;13.05;;;;;;;;;;5039746;28;20045;-71
2022/04/23 03:33:06;;;;;;;22.25;13.05;;;;;;;;;;5042330;28;20056;-71
2022/04/23 03:35:32;;;;;;;22.35;12.27;;;;;;;;;;5042009;28;20469;-71
2022/04/23 03:37:58;;;;;;;22.02;12.27;;;;;;;;;;5039596;28;20060;-71
2022/04/23 03:40:24;;;;;;;24.20;12.60;;;;;;;;;;5032136;28;20029;-71
2022/04/23 03:42:50;;;;;;;23.25;12.88;;;;;;;;;;5034969;28;20068;-71
2022/04/23 03:45:18;;;;;;;22.95;12.50;;;;;;;;;;5037135;28;20041;-71
2022/04/23 03:47:46;;;;;;;26.42;13.57;;;;;;;;;;5036961;28;20029;-71
2022/04/23 03:50:11;;;;;;;22.60;12.73;;;;;;;;;;5040186;28;20489;-71
2022/04/23 03:52:37;;;;;;;26.17;13.55;;;;;;;;;;5037927;28;20021;-71
2022/04/23 03:55:04;;;;;;;23.08;13.05;;;;;;;;;;5035282;28;20108;-71
2022/04/23 03:57:29;;;;;;;25.30;14.20;;;;;;;;;;5035007;28;20523;-71
2022/04/23 03:59:55;;;;;;;25.13;13.43;;;;;;;;;;5038593;28;20119;-71
2022/04/23 04:02:20;;;;;;;22.25;12.20;;;;;;;;;;5028809;28;20033;-71
2022/04/23 04:04:46;;;;;;;23.40;13.65;;;;;;;;;;5045128;28;20041;-71
2022/04/23 04:07:20;;;;;;;21.77;12.02;;;;;;;;;;5031395;28;20571;-71
2022/04/23 04:09:46;;;;;;;25.85;13.35;;;;;;;;;;5041489;28;20057;-71
2022/04/23 04:12:11;;;;;;;24.70;13.80;;;;;;;;;;5042193;28;20041;-71
2022/04/23 04:14:37;;;;;;;24.05;13.30;;;;;;;;;;5032877;28;20643;-71
2022/04/23 04:17:06;;;;;;;24.55;13.82;;;;;;;;;;5038588;28;20537;-71
2022/04/23 04:19:32;;;;;;;25.77;13.77;;;;;;;;;;5037546;28;20029;-71
2022/04/23 04:21:59;;;;;;;27.10;14.98;;;;;;;;;;5039127;28;20106;-71
2022/04/23 04:24:26;;;;;;;25.58;13.73;;;;;;;;;;5030924;28;20050;-71
2022/04/23 04:26:52;;;;;;;26.23;14.13;;;;;;;;;;5037810;28;20068;-71
2022/04/23 04:29:17;;;;;;;28.77;14.35;;;;;;;;;;5034940;28;20017;-71
2022/04/23 04:31:49;;;;;;;27.65;14.35;;;;;;;;;;5046269;28;20206;-71
2022/04/23 04:34:23;;;;;;;27.05;13.73;;;;;;;;;;5043342;28;20387;-71
2022/04/23 04:36:49;;;;;;;25.00;13.23;;;;;;;;;;5036492;28;20049;-71
2022/04/23 04:39:15;;;;;;;25.88;13.80;;;;;;;;;;5043034;28;20029;-71
2022/04/23 04:41:41;;;;;;;25.33;13.57;;;;;;;;;;5035569;28;20120;-71
2022/04/23 04:44:08;;;;;;;24.67;13.27;;;;;;;;;;5046175;28;20628;-71
2022/04/23 04:46:34;;;;;;;27.40;14.52;;;;;;;;;;5039595;28;20053;-71
2022/04/23 04:49:03;;;;;;;29.75;15.15;;;;;;;;;;5036254;28;20044;-71
2022/04/23 04:51:29;;;;;;;26.85;13.38;;;;;;;;;;5041464;28;20044;-70
2022/04/23 04:53:55;;;;;;;26.35;13.60;;;;;;;;;;5040331;28;20037;-70
2022/04/23 04:56:21;;;;;;;32.78;14.85;;;;;;;;;;5053402;28;20025;-71
2022/04/23 04:58:46;;;;;;;25.98;14.52;;;;;;;;;;5042474;28;20116;-71
2022/04/23 05:01:13;;;;;;;29.48;14.75;;;;;;;;;;5041299;28;20037;-71
2022/04/23 05:03:40;;;;;;;24.90;13.93;;;;;;;;;;5043297;28;20053;-71
2022/04/23 05:06:06;;;;;;;25.85;13.13;;;;;;;;;;5038624;28;20052;-71
2022/04/23 05:08:34;;;;;;;23.48;14.13;;;;;;;;;;5044171;28;20033;-71
2022/04/23 05:10:59;;;;;;;28.80;14.98;;;;;;;;;;5042300;28;20114;-71
2022/04/23 05:13:25;;;;;;;26.73;14.68;;;;;;;;;;5045267;28;20100;-71
2022/04/23 05:15:51;;;;;;;27.40;13.77;;;;;;;;;;5045161;28;20041;-70
2022/04/23 05:18:16;;;;;;;26.38;13.70;;;;;;;;;;5036634;28;20025;-71
2022/04/23 05:20:41;;;;;;;26.15;14.38;;;;;;;;;;5044710;28;20080;-71
2022/04/23 05:23:07;;;;;;;27.27;13.75;;;;;;;;;;5042562;28;20573;-71
2022/04/23 05:25:32;;;;;;;30.13;14.20;;;;;;;;;;5048281;28;20078;-71
2022/04/23 05:28:00;;;;;;;27.20;14.07;;;;;;;;;;5044707;28;20041;-71
2022/04/23 05:30:26;;;;;;;25.48;14.75;;;;;;;;;;5040636;28;20102;-70
2022/04/23 05:32:51;;;;;;;28.85;15.07;;;;;;;;;;5047106;28;20810;-71
2022/04/23 05:35:17;;;;;;;24.77;13.85;;;;;;;;;;5044087;28;20025;-71
2022/04/23 05:37:42;;;;;;;27.08;14.65;;;;;;;;;;5029094;28;20051;-71
2022/04/23 05:40:08;;;;;;;24.30;14.32;;;;;;;;;;5029174;28;20129;-71
2022/04/23 05:42:33;;;;;;;28.17;15.48;;;;;;;;;;5028275;28;20095;-71
2022/04/23 05:44:59;;;;;;;25.50;14.40;;;;;;;;;;5034815;28;20504;-71
2022/04/23 05:47:24;;;;;;;27.23;15.07;;;;;;;;;;5046996;28;20098;-70
2022/04/23 05:49:50;;;;;;;26.30;14.52;;;;;;;;;;5044762;28;20052;-70
2022/04/23 05:52:15;;;;;;;26.38;14.73;;;;;;;;;;5039138;28;20408;-70
2022/04/23 05:54:40;;;;;;;28.23;14.55;;;;;;;;;;5039719;28;20042;-70
2022/04/23 05:57:06;;;;;;;30.15;15.57;;;;;;;;;;5036052;28;20519;-70
2022/04/23 05:59:31;;;;;;;26.17;14.48;;;;;;;;;;5038190;28;20037;-71
2022/04/23 06:01:57;;;;;;;26.77;14.38;;;;;;;;;;5037656;28;20055;-71
2022/04/23 06:04:23;;;;;;;27.67;14.32;;;;;;;;;;5035527;28;20045;-71
2022/04/23 06:06:49;;;;;;;28.75;14.48;;;;;;;;;;5041779;28;20037;-71
2022/04/23 06:09:14;;;;;;;23.75;12.77;;;;;;;;;;5037838;28;20407;-70
2022/04/23 06:11:40;;;;;;;27.80;14.50;;;;;;;;;;5039609;28;20418;-70
2022/04/23 06:14:05;;;;;;;21.42;11.85;;;;;;;;;;5036161;28;20082;-70
2022/04/23 06:16:31;;;;;;;28.67;14.18;;;;;;;;;;5038081;28;20067;-70
2022/04/23 06:18:56;;;;;;;27.10;14.30;;;;;;;;;;5036795;28;20065;-70
2022/04/23 06:21:21;;;;;;;27.25;14.07;;;;;;;;;;5032605;28;20040;-70
2022/04/23 06:23:47;;;;;;;26.95;14.15;;;;;;;;;;5034931;28;20041;-70
2022/04/23 06:26:12;;;;;;;26.63;15.00;;;;;;;;;;5034819;28;20025;-70
2022/04/23 06:28:37;;;;;;;25.13;14.20;;;;;;;;;;5047680;28;20029;-70
2022/04/23 06:31:03;;;;;;;26.65;14.73;;;;;;;;;;5041781;28;20053;-70
2022/04/23 06:33:28;;;;;;;24.73;15.20;;;;;;;;;;5043419;28;20048;-70
2022/04/23 06:35:53;;;;;;;25.85;14.55;;;;;;;;;;5039496;28;20037;-70
2022/04/23 06:38:19;;;;;;;22.77;13.40;;;;;;;;;;5030084;28;20064;-70
2022/04/23 06:40:44;;;;;;;28.88;15.57;;;;;;;;;;5035448;28;20021;-70
2022/04/23 06:43:09;;;;;;;31.15;15.45;;;;;;;;;;5038168;28;20040;-70
2022/04/23 06:45:35;;;;;;;27.95;13.95;;;;;;;;;;5036859;28;20104;-70
2022/04/23 06:48:04;;;;;;;28.75;15.50;;;;;;;;;;5035789;28;20651;-70
2022/04/23 06:50:35;;;;;;;28.95;15.48;;;;;;;;;;5028682;28;20691;-70
2022/04/23 06:53:01;;;;;;;29.63;15.00;;;;;;;;;;5045758;28;20032;-71
2022/04/23 06:55:27;;;;;;;29.45;15.10;;;;;;;;;;5038453;28;20060;-69
2022/04/23 06:57:53;;;;;;;30.50;15.15;;;;;;;;;;5035612;28;20037;-69
2022/04/23 07:00:21;;;;;;;26.15;15.23;;;;;;;;;;5033623;28;20033;-79
2022/04/23 07:02:46;;;;;;;26.42;14.38;;;;;;;;;;5026000;28;20033;-76
2022/04/23 07:05:12;;;;;;;31.35;15.90;;;;;;;;;;5030956;28;20021;-74
2022/04/23 07:07:37;;;;;;;27.92;15.15;;;;;;;;;;5038646;28;20092;-76
2022/04/23 07:10:04;;;;;;;29.55;14.98;;;;;;;;;;5031224;28;20055;-73
2022/04/23 07:12:29;;;;;;;29.75;15.48;;;;;;;;;;5031181;28;20128;-75
2022/04/23 07:14:54;;;;;;;27.13;14.82;;;;;;;;;;5032052;28;20132;-76
2022/04/23 07:17:26;;;;;;;27.45;15.30;;;;;;;;;;5028980;28;20553;-78
2022/04/23 07:19:53;;;;;;;29.88;15.90;;;;;;;;;;5037398;28;20501;-79
2022/04/23 07:22:19;;;;;;;29.02;15.70;;;;;;;;;;5035207;28;20037;-78
2022/04/23 07:24:45;;;;;;;31.63;16.13;;;;;;;;;;5032425;28;20379;-78
2022/04/23 07:27:11;;;;;;;29.67;16.25;;;;;;;;;;5033255;28;20025;-78
2022/04/23 07:29:37;;;;;;;30.90;16.52;;;;;;;;;;5033758;28;20320;-77
2022/04/23 07:32:03;;;;;;;27.08;14.13;;;;;;;;;;5033387;28;20037;-78
2022/04/23 07:40:01;;;;;;;27.20;15.68;;;;;;;;;;5030947;28;20468;-78
2022/04/23 07:42:28;;;;;;;31.20;16.67;;;;;;;;;;5035157;28;20040;-78
2022/04/23 07:44:53;;;;;;;27.67;15.60;;;;;;;;;;5031660;28;20044;-78
2022/04/23 07:47:19;;;;;;;29.90;14.57;;;;;;;;;;5031093;28;20021;-78
2022/04/23 07:49:45;;;;;;;30.92;15.82;;;;;;;;;;5034044;28;20025;-78
2022/04/23 07:52:11;;;;;;;31.50;17.42;;;;;;;;;;5036728;28;20522;-74
2022/04/23 07:54:38;;;;;;;29.98;16.58;;;;;;;;;;5039655;28;20033;-74
2022/04/23 07:57:07;;;;;;;32.20;17.10;;;;;;;;;;5035825;28;20040;-74
2022/04/23 07:59:34;;;;;;;26.52;14.30;;;;;;;;;;5034018;28;20087;-73
2022/04/23 08:02:01;;;;;;;29.98;16.60;;;;;;;;;;5035613;28;20098;-73
2022/04/23 08:04:26;;;;;;;31.20;16.23;;;;;;;;;;5035497;28;20057;-73
2022/04/23 08:06:52;;;;;;;29.35;15.25;;;;;;;;;;5038216;28;20043;-73
2022/04/23 08:09:17;;;;;;;28.50;16.10;;;;;;;;;;5032922;28;20029;-73
2022/04/23 08:11:42;;;;;;;31.13;17.27;;;;;;;;;;5032838;28;20526;-73
2022/04/23 08:14:08;;;;;;;31.10;16.27;;;;;;;;;;5037068;28;20036;-73
2022/04/23 08:16:33;;;;;;;29.20;16.52;;;;;;;;;;5035699;28;20119;-73
2022/04/23 08:18:59;;;;;;;28.30;16.67;;;;;;;;;;5029681;28;20037;-74
2022/04/23 08:21:24;;;;;;;29.25;15.88;;;;;;;;;;5028342;28;20033;-74
2022/04/23 08:23:50;;;;;;;30.88;16.05;;;;;;;;;;5036478;28;20039;-74
2022/04/23 08:26:15;;;;;;;33.00;16.83;;;;;;;;;;5034932;28;20510;-79
2022/04/23 08:31:24;;;;;;;32.85;16.42;;;;;;;;;;5037095;28;20543;-74
2022/04/23 08:33:59;;;;;;;28.83;15.38;;;;;;;;;;5029158;28;20033;-74
2022/04/23 08:36:35;;;;;;;30.52;16.70;;;;;;;;;;5035712;28;20045;-74
2022/04/23 08:39:01;;;;;;;31.55;16.17;;;;;;;;;;5037356;28;20037;-74
2022/04/23 08:41:31;;;;;;;27.83;15.98;;;;;;;;;;5036789;28;20064;-74
2022/04/23 08:44:07;;;;;;;29.77;15.65;;;;;;;;;;5046122;28;20418;-74
2022/04/23 08:46:38;;;;;;;28.38;17.25;;;;;;;;;;5041040;28;20508;-74
2022/04/23 08:49:10;;;;;;;34.90;15.68;;;;;;;;;;5037088;28;20045;-74
2022/04/23 08:51:37;;;;;;;27.55;15.63;;;;;;;;;;5040140;28;20056;-74
2022/04/23 08:54:09;;;;;;;28.23;16.35;;;;;;;;;;5036300;28;20040;-74
2022/04/23 08:56:36;;;;;;;28.98;16.40;;;;;;;;;;5039715;28;20090;-74
2022/04/23 08:59:03;;;;;;;28.90;16.65;;;;;;;;;;5036488;28;20021;-74
2022/04/23 09:01:31;;;;;;;27.90;16.35;;;;;;;;;;5036791;28;20094;-75
2022/04/23 09:03:57;;;;;;;30.13;16.20;;;;;;;;;;5037573;28;20061;-74
2022/04/23 09:06:23;;;;;;;29.13;15.63;;;;;;;;;;5038142;28;20082;-74
2022/04/23 09:09:17;;;;;;;28.08;15.05;;;;;;;;;;5032782;28;20426;-74
2022/04/23 09:11:46;;;;;;;30.92;15.68;;;;;;;;;;5026742;28;20438;-75
2022/04/23 09:14:31;;;;;;;28.85;16.77;;;;;;;;;;5026820;28;20053;-74
2022/04/23 09:25:30;;;;;;;31.40;16.98;;;;;;;;;;5046295;28;20063;-74
2022/04/23 09:27:55;;;;;;;34.42;16.77;;;;;;;;;;5037252;28;20423;-74
2022/04/23 09:30:20;;;;;;;30.27;16.48;;;;;;;;;;5033189;28;20580;-78
2022/04/23 09:32:56;;;;;;;30.40;16.98;;;;;;;;;;5044481;28;20097;-74
2022/04/23 09:35:22;;;;;;;28.33;15.85;;;;;;;;;;5040490;28;20513;-74
2022/04/23 09:40:31;;;;;;;31.80;16.90;;;;;;;;;;5038385;28;20095;-75
2022/04/23 09:43:00;;;;;;;24.63;14.27;;;;;;;;;;5035847;28;20465;-75
2022/04/23 09:45:29;;;;;;;29.63;16.48;;;;;;;;;;5043297;28;20036;-75
2022/04/23 09:48:03;;;;;;;31.10;17.48;;;;;;;;;;5048992;28;20040;-75
2022/04/23 09:50:38;;;;;;;29.63;15.60;;;;;;;;;;5044028;28;20052;-75
2022/04/23 09:53:10;;;;;;;28.23;16.67;;;;;;;;;;5045227;28;20028;-75
2022/04/23 09:55:36;;;;;;;35.53;17.23;;;;;;;;;;5040631;28;20099;-74
2022/04/23 09:58:05;;;;;;;27.98;15.57;;;;;;;;;;5041366;28;20093;-74
2022/04/23 10:00:32;;;;;;;25.30;15.48;;;;;;;;;;5037592;28;20045;-75
2022/04/23 10:03:00;;;;;;;33.13;16.75;;;;;;;;;;5041503;28;20134;-75
2022/04/23 10:05:26;;;;;;;29.02;15.63;;;;;;;;;;5039160;28;20061;-75
2022/04/23 10:07:55;;;;;;;29.15;16.45;;;;;;;;;;5049581;28;20055;-75
2022/04/23 10:10:25;;;;;;;30.95;17.15;;;;;;;;;;5040773;28;20029;-74
2022/04/23 10:12:53;;;;;;;26.77;16.35;;;;;;;;;;5043022;28;20565;-75
2022/04/23 10:15:19;;;;;;;29.85;17.25;;;;;;;;;;5039198;28;20057;-74
2022/04/23 10:17:45;;;;;;;25.15;15.43;;;;;;;;;;5047127;28;20396;-72
2022/04/23 10:20:12;;;;;;;28.83;16.00;;;;;;;;;;5037540;28;20027;-73
2022/04/23 10:22:43;;;;;;;28.83;16.98;;;;;;;;;;5041575;28;20029;-73
2022/04/23 10:25:27;;;;;;;29.15;16.63;;;;;;;;;;5041002;28;20026;-73
2022/04/23 10:27:57;;;;;;;25.73;15.35;;;;;;;;;;5028668;28;20049;-72
2022/04/23 10:30:24;;;;;;;27.88;15.80;;;;;;;;;;5040165;28;20040;-72
2022/04/23 10:32:50;;;;;;;25.45;15.52;;;;;;;;;;5036096;28;20107;-72
2022/04/23 10:35:18;;;;;;;24.73;13.98;;;;;;;;;;5043747;28;20573;-73
2022/04/23 10:37:50;;;;;;;23.80;14.63;;;;;;;;;;5044382;28;20578;-73
2022/04/23 10:40:19;;;;;;;27.73;15.85;;;;;;;;;;5036231;28;20091;-73
2022/04/23 10:43:03;;;;;;;26.30;15.23;;;;;;;;;;5040630;28;20052;-73
2022/04/23 10:45:36;;;;;;;29.95;14.38;;;;;;;;;;5034738;28;20041;-73
2022/04/23 10:48:19;;;;;;;27.30;15.67;;;;;;;;;;5031448;28;20040;-73
2022/04/23 10:51:15;;;;;;;25.73;15.30;;;;;;;;;;5038176;28;20055;-73
2022/04/23 10:53:41;;;;;;;24.88;15.20;;;;;;;;;;5036423;28;20034;-72
2022/04/23 10:56:07;;;;;;;25.70;15.40;;;;;;;;;;5028775;28;20032;-73
2022/04/23 10:58:33;;;;;;;27.60;16.42;;;;;;;;;;5034402;28;20018;-73
2022/04/23 11:01:31;;;;;;;22.20;14.30;;;;;;;;;;5038672;28;20035;-73
2022/04/23 11:04:06;;;;;;;25.35;14.75;;;;;;;;;;5030128;28;20534;-73
2022/04/23 11:12:33;;;;;;;33.47;16.27;;;;;;;;;;5028567;28;20697;-73
2022/04/23 11:15:00;;;;;;;26.55;15.23;;;;;;;;;;5043660;28;20033;-73
2022/04/23 11:17:29;;;;;;;28.17;13.82;;;;;;;;;;5031078;28;20029;-74
2022/04/23 11:19:54;;;;;;;28.02;15.73;;;;;;;;;;5028679;28;20552;-73
2022/04/23 11:22:20;;;;;;;27.02;15.65;;;;;;;;;;5029788;28;20060;-73
2022/04/23 11:24:48;;;;;;;26.70;16.50;;;;;;;;;;5036370;28;20659;-73
2022/04/23 11:27:27;;;;;;;26.30;15.90;;;;;;;;;;5033430;28;20114;-73
2022/04/23 11:29:53;;;;;;;26.88;16.33;;;;;;;;;;5035764;28;20041;-73
2022/04/23 11:32:29;;;;;;;26.08;15.82;;;;;;;;;;5031288;28;20017;-73
2022/04/23 11:34:59;;;;;;;23.92;15.52;;;;;;;;;;5037982;28;20036;-73
2022/04/23 11:37:32;;;;;;;22.40;14.27;;;;;;;;;;5037733;28;20037;-73
2022/04/23 11:40:03;;;;;;;26.67;16.10;;;;;;;;;;5029179;28;20107;-73
2022/04/23 11:42:43;;;;;;;27.70;15.80;;;;;;;;;;5027098;28;20596;-73
2022/04/23 11:45:11;;;;;;;25.02;14.93;;;;;;;;;;5023889;28;20094;-72
2022/04/23 11:47:37;;;;;;;29.52;15.02;;;;;;;;;;5032545;28;20036;-72
2022/04/23 11:50:15;;;;;;;24.60;15.07;;;;;;;;;;5046491;28;20021;-72
2022/04/23 11:52:42;;;;;;;27.42;16.23;;;;;;;;;;5040932;28;20049;-72
2022/04/23 11:55:30;;;;;;;27.70;14.95;;;;;;;;;;5033626;28;20029;-72
2022/04/23 11:57:58;;;;;;;28.95;16.45;;;;;;;;;;5031181;28;20041;-72
2022/04/23 12:00:26;;;;;;;25.95;15.27;;;;;;;;;;5029175;28;20040;-73
2022/04/23 12:02:52;;;;;;;27.85;16.10;;;;;;;;;;5030235;28;20391;-72
2022/04/23 12:05:25;;;;;;;19.55;12.13;;;;;;;;;;5038247;28;20036;-72
2022/04/23 12:07:51;;;;;;;24.35;15.00;;;;;;;;;;5038288;28;20017;-73
2022/04/23 12:10:23;;;;;;;26.27;15.02;;;;;;;;;;5039703;28;20048;-73
2022/04/23 12:12:50;;;;;;;25.27;14.25;;;;;;;;;;5030879;28;20684;-73
2022/04/23 12:15:15;;;;;;;22.05;14.25;;;;;;;;;;5035783;28;20071;-73
2022/04/23 12:17:51;;;;;;;26.52;15.20;;;;;;;;;;5039226;28;20081;-72
2022/04/23 12:20:21;;;;;;;22.60;14.48;;;;;;;;;;5035777;28;20021;-73
2022/04/23 12:23:13;;;;;;;24.13;15.13;;;;;;;;;;5031665;28;20055;-73
2022/04/23 12:25:39;;;;;;;23.40;14.75;;;;;;;;;;5034999;28;20112;-72
2022/04/23 12:42:21;;;;;;;22.50;14.23;;;;;;;;;;5032840;28;20032;-73
2022/04/23 12:44:46;;;;;;;21.20;13.48;;;;;;;;;;5030123;28;20037;-73
2022/04/23 12:47:34;;;;;;;16.55;11.70;;;;;;;;;;5038758;28;20900;-73
2022/04/23 12:50:03;;;;;;;16.60;9.05;;;;;;;;;;5036565;28;20469;-72
2022/04/23 12:52:44;;;;;;;13.77;7.93;;;;;;;;;;5034444;28;20095;-73
2022/04/23 12:55:36;;;;;;;10.20;7.88;;;;;;;;;;5041739;28;20048;-72
2022/04/23 12:58:02;;;;;;;14.45;8.98;;;;;;;;;;5030045;28;20067;-73
2022/04/23 13:00:34;;;;;;;13.40;8.30;;;;;;;;;;5034362;28;20836;-73
2022/04/23 13:03:15;;;;;;;18.23;9.27;;;;;;;;;;5033390;28;20068;-72
2022/04/23 13:05:40;;;;;;;14.73;8.38;;;;;;;;;;5038135;28;20040;-73
2022/04/23 13:10:51;;;;;;;12.15;8.20;;;;;;;;;;5029983;28;20083;-73
2022/04/23 13:13:17;;;;;;;16.05;9.52;;;;;;;;;;5029753;28;20025;-73
2022/04/23 13:15:43;;;;;;;12.95;8.80;;;;;;;;;;5035520;28;20041;-73
2022/04/23 13:18:10;;;;;;;13.18;8.35;;;;;;;;;;5046635;28;20449;-73
2022/04/23 13:20:36;;;;;;;12.65;8.60;;;;;;;;;;5041714;28;20518;-73
2022/04/23 13:23:03;;;;;;;11.73;8.05;;;;;;;;;;5031634;28;20036;-73
2022/04/23 13:25:31;;;;;;;15.77;8.13;;;;;;;;;;5038649;28;20036;-73
2022/04/23 13:27:56;;;;;;;13.40;8.57;;;;;;;;;;5038204;28;20033;-73
2022/04/23 13:30:21;;;;;;;10.20;8.23;;;;;;;;;;5030751;28;20033;-73
2022/04/23 13:32:47;;;;;;;10.98;8.05;;;;;;;;;;5041462;28;20037;-73
2022/04/23 13:35:14;;;;;;;10.85;7.63;;;;;;;;;;5040582;28;20021;-73
2022/04/23 13:37:41;;;;;;;10.73;7.45;;;;;;;;;;5043472;28;20037;-73
2022/04/23 13:40:11;;;;;;;10.65;7.45;;;;;;;;;;5037369;28;20040;-73
2022/04/23 13:42:38;;;;;;;13.88;7.68;;;;;;;;;;5042201;28;20048;-73
2022/04/23 13:45:05;;;;;;;8.55;7.25;;;;;;;;;;5040652;28;20856;-73
2022/04/23 13:47:32;;;;;;;11.18;7.50;;;;;;;;;;5034346;28;20037;-72
2022/04/23 13:49:59;;;;;;;9.98;7.00;;;;;;;;;;5039228;28;20032;-72
2022/04/23 13:52:25;;;;;;;10.32;7.72;;;;;;;;;;5046996;28;20552;-73
2022/04/23 13:54:50;;;;;;;10.93;7.15;;;;;;;;;;5025018;28;20120;-73
2022/04/23 13:57:16;;;;;;;9.93;6.82;;;;;;;;;;5037634;28;20037;-72
2022/04/23 13:59:43;;;;;;;12.55;7.47;;;;;;;;;;5029433;28;20117;-73
2022/04/23 14:10:22;;;;;;;11.40;6.78;;;;;;;;;;5028007;28;20092;-73
2022/04/23 14:12:48;;;;;;;14.73;7.28;;;;;;;;;;5033255;28;20033;-73
2022/04/23 14:15:15;;;;;;;8.98;6.75;;;;;;;;;;5039368;28;20124;-73
2022/04/23 14:17:40;;;;;;;9.48;6.60;;;;;;;;;;5029283;28;20045;-73
2022/04/23 14:20:07;;;;;;;8.45;7.00;;;;;;;;;;5030550;28;20028;-73
2022/04/23 14:22:32;;;;;;;8.73;6.20;;;;;;;;;;5041720;28;20026;-73
2022/04/23 14:24:59;;;;;;;10.05;6.60;;;;;;;;;;5040043;28;20064;-73
2022/04/23 14:27:25;;;;;;;9.65;7.22;;;;;;;;;;5032569;28;20535;-73
2022/04/23 14:29:51;;;;;;;10.45;7.03;;;;;;;;;;5044852;28;20534;-74
2022/04/23 14:32:16;;;;;;;11.43;7.63;;;;;;;;;;5038235;28;20025;-71
2022/04/23 14:34:44;;;;;;;8.55;7.05;;;;;;;;;;5036456;28;20139;-72
2022/04/23 14:37:09;;;;;;;9.93;7.22;;;;;;;;;;5035977;28;20033;-73
2022/04/23 14:39:34;;;;;;;10.07;7.47;;;;;;;;;;5038978;28;20075;-72
2022/04/23 14:42:00;;;;;;;10.75;6.95;;;;;;;;;;5041657;28;20055;-71
2022/04/23 14:44:25;;;;;;;10.95;7.00;;;;;;;;;;5038391;28;20086;-71
2022/04/23 14:46:52;;;;;;;11.63;7.20;;;;;;;;;;5036059;28;20020;-71
2022/04/23 14:49:18;;;;;;;10.88;7.30;;;;;;;;;;5040688;28;20059;-71
2022/04/23 14:54:28;;;;;;;10.75;7.00;;;;;;;;;;5035799;28;20040;-71
2022/04/23 14:56:53;;;;;;;8.10;5.75;;;;;;;;;;5040569;28;20037;-71
2022/04/23 14:59:19;;;;;;;12.23;5.90;;;;;;;;;;5038435;28;20043;-71
2022/04/23 15:01:46;;;;;;;8.02;6.40;;;;;;;;;;5038096;28;20025;-71
2022/04/23 15:04:12;;;;;;;8.27;5.95;;;;;;;;;;5029496;28;20056;-71
2022/04/23 15:06:40;;;;;;;10.75;5.93;;;;;;;;;;5031244;28;20048;-71
2022/04/23 15:09:06;;;;;;;7.43;5.05;;;;;;;;;;5034196;28;20734;-71
2022/04/23 15:11:32;;;;;;;8.20;5.32;;;;;;;;;;5016814;28;20052;-72
2022/04/23 15:13:58;;;;;;;7.53;5.22;;;;;;;;;;5026433;28;20060;-71